Impacts TAF Board
For situational awareness. Not to be used for flight planning purposes.
IDs:

KMRB - Martinsburg/E West V, WV, US

Issued at 1141 UTC 17 Sep 2019
Updated at 1238 UTC 17 Sep 2019
Potential Impact None Slight Moderate High
Time1153Z 17/13Z 17/14Z 17/15Z 17/16Z 17/17Z 17/18Z 17/19Z 17/20Z 17/21Z 17/22Z 17/23Z 18/00Z 18/01Z>>
Type OBS PRVL PRVL PRVL PRVL PRVL PRVL PRVL PRVL PRVL PRVL PRVL PRVL PRVL
VIS 10 >6 >6 >6 >6 >6 >6 >6 >6 >6 >6 >6 >6 >6
CIG 55 50 50 50 50 50 50 50 -- -- -- -- -- --
Cover OVC OVC OVC OVC OVC OVC OVC OVC SCT SCT SCT SCT FEW FEW
FltCat VFR VFR VFR VFR VFR VFR VFR VFR VFR VFR VFR VFR VFR VFR
WX -- -- -- -- -- -- -- -- -- -- -- -- -- --
WDir 10 30 30 30 30 30 30 30 60 60 60 60 VRB VRB
WSpd 8 7 7 7 7 7 7 7 6 6 6 6 3 3
WGst -- -- -- -- -- -- -- -- -- -- -- -- -- --
Raw TAF
KMRB 171141Z 1712/1812 03007KT P6SM BKN050 OVC100
  FM172000 06006KT P6SM SCT100
  FM180000 VRB03KT P6SM FEW100


Raw METAR
KMRB 171153Z 01008KT 10SM OVC055 20/16 A3010 RMK AO2 SLP186 T02000161 10222 20200 53020
KMRB 171053Z 01007KT 10SM BKN055 OVC065 20/17 A3008 RMK AO2 SLP180 T02000167
KMRB 170953Z AUTO 01007KT 10SM SCT065 20/17 A3005 RMK AO2 SLP171 T02000167

METAR Board
Radar Display
Forecast Discussion
For situational awareness. Not to be used for flight planning purposes.